Time;durP1;ratioP1;P1;durP2;ratioP2;P2;SDS_P1;SDS_P2;PMS_P1;PMS_P2;Temp;Humidity;BMP_temperature;BMP_pressure;BME280_temperature;BME280_humidity;BME280_pressure;Samples;Min_cycle;Max_cycle;Signal;HPM_P1;HPM_P2
2022/06/23 00:01:01;;;;;;;7.65;5.70;;;22.50;63.00;;;;;;20517;6851;338472;31
2022/06/23 00:03:28;;;;;;;6.10;5.50;;;22.80;62.30;;;;;;20688;6853;117096;31
2022/06/23 00:05:53;;;;;;;7.27;5.87;;;22.80;62.20;;;;;;20472;6855;309945;31
2022/06/23 00:08:18;;;;;;;12.40;6.90;;;22.90;61.10;;;;;;20497;6855;335380;31
2022/06/23 00:10:46;;;;;;;11.07;6.70;;;23.20;60.50;;;;;;20510;6855;308039;31
2022/06/23 00:13:13;;;;;;;9.60;6.00;;;23.40;60.60;;;;;;20480;6855;310821;31
2022/06/23 00:15:38;;;;;;;8.77;6.75;;;23.50;60.00;;;;;;20508;6857;310567;31
2022/06/23 00:18:04;;;;;;;7.40;6.60;;;23.60;59.30;;;;;;20504;6857;280003;31
2022/06/23 00:20:55;;;;;;;13.10;7.20;;;23.60;60.00;;;;;;20750;6857;116699;31
2022/06/23 00:23:21;;;;;;;9.67;5.63;;;23.40;60.50;;;;;;20734;6857;126142;31
2022/06/23 00:25:50;;;;;;;7.63;6.40;;;22.90;61.30;;;;;;20554;6857;309407;31
2022/06/23 00:28:15;;;;;;;9.25;6.75;;;23.00;61.50;;;;;;20539;6857;340053;31
2022/06/23 00:30:41;;;;;;;13.67;7.00;;;23.30;61.20;;;;;;20762;6857;116253;31
2022/06/23 00:33:18;;;;;;;12.50;7.70;;;23.10;61.30;;;;;;20779;6855;121659;31
2022/06/23 00:35:43;;;;;;;9.77;6.10;;;22.90;62.00;;;;;;20759;6856;116249;31
2022/06/23 00:38:29;;;;;;;10.83;7.40;;;22.60;62.60;;;;;;20557;6856;306881;31
2022/06/23 00:40:54;;;;;;;16.43;8.03;;;22.80;62.80;;;;;;20753;6856;119540;31
2022/06/23 00:43:20;;;;;;;13.27;8.60;;;22.70;62.60;;;;;;20744;6856;121068;31
2022/06/23 00:46:05;;;;;;;19.97;10.07;;;22.50;63.10;;;;;;20545;6856;309678;31
2022/06/23 00:48:31;;;;;;;18.25;9.85;;;22.70;62.50;;;;;;20547;6856;307599;31
2022/06/23 00:50:56;;;;;;;13.95;9.25;;;23.00;61.60;;;;;;20477;6856;307911;31
2022/06/23 00:53:38;;;;;;;12.97;8.37;;;23.20;61.60;;;;;;20471;6857;293449;31
2022/06/23 00:56:03;;;;;;;14.53;7.57;;;23.30;60.90;;;;;;19843;6857;120410;31
2022/06/23 00:58:35;;;;;;;7.83;6.50;;;23.00;61.20;;;;;;20612;6872;117439;31
2022/06/23 01:01:04;;;;;;;12.23;8.47;;;22.60;61.90;;;;;;20440;6859;280714;31
2022/06/23 01:03:33;;;;;;;7.47;6.00;;;22.70;61.80;;;;;;20604;6867;122975;31
2022/06/23 01:06:08;;;;;;;7.63;6.17;;;22.60;61.80;;;;;;20695;6851;121226;31
2022/06/23 01:08:47;;;;;;;10.37;6.70;;;22.30;62.30;;;;;;20648;6867;116190;31
2022/06/23 01:11:36;;;;;;;8.70;6.47;;;22.00;62.80;;;;;;20685;6853;119605;31
2022/06/23 01:14:09;;;;;;;10.43;7.70;;;21.80;63.30;;;;;;20351;6853;338574;31
2022/06/23 01:16:41;;;;;;;8.67;7.50;;;22.10;62.90;;;;;;20358;6853;307361;31
2022/06/23 01:19:36;;;;;;;8.70;7.57;;;22.40;61.50;;;;;;20508;6853;287682;31
2022/06/23 01:22:01;;;;;;;10.17;7.13;;;22.70;60.60;;;;;;20708;6853;117026;31
2022/06/23 01:24:30;;;;;;;7.87;6.47;;;22.40;60.90;;;;;;20708;6853;117219;31
2022/06/23 01:27:02;;;;;;;8.60;7.70;;;22.10;61.80;;;;;;20487;6856;309525;31
2022/06/23 01:29:34;;;;;;;10.40;7.70;;;22.20;61.30;;;;;;20444;6856;308730;31
2022/06/23 01:32:19;;;;;;;8.90;7.50;;;22.50;60.60;;;;;;20457;6856;308219;31
2022/06/23 01:34:45;;;;;;;7.03;6.43;;;22.70;60.00;;;;;;20684;6856;117424;31
2022/06/23 01:37:13;;;;;;;9.23;6.43;;;22.50;60.10;;;;;;20680;6856;120506;31
2022/06/23 01:39:49;;;;;;;9.33;7.00;;;22.10;60.60;;;;;;20674;6856;122383;31
2022/06/23 01:42:34;;;;;;;19.23;9.27;;;21.90;61.20;;;;;;20460;6856;310510;31
2022/06/23 01:45:09;;;;;;;12.57;8.90;;;22.00;61.00;;;;;;20473;6855;338107;31
2022/06/23 01:47:44;;;;;;;16.37;8.53;;;22.30;60.70;;;;;;20643;6856;118298;31
2022/06/23 01:50:13;;;;;;;15.57;9.60;;;22.10;61.00;;;;;;20461;6856;281255;31
2022/06/23 01:52:41;;;;;;;10.43;8.83;;;22.20;60.70;;;;;;20455;6856;280902;31
2022/06/23 01:55:24;;;;;;;25.60;9.47;;;22.50;59.90;;;;;;20492;6852;279189;31
2022/06/23 01:57:49;;;;;;;10.20;9.02;;;22.60;59.50;;;;;;20472;6852;315732;31
2022/06/23 02:00:22;;;;;;;21.20;8.73;;;22.70;59.60;;;;;;20683;6852;117129;31
2022/06/23 02:02:50;;;;;;;74.03;11.77;;;22.40;60.20;;;;;;20468;6852;325992;31
2022/06/23 02:05:43;;;;;;;16.53;10.00;;;22.40;61.80;;;;;;20472;6853;281386;31
2022/06/23 02:08:31;;;;;;;22.67;10.07;;;22.50;62.00;;;;;;20492;6853;304223;31
2022/06/23 02:11:13;;;;;;;27.00;10.43;;;22.70;61.20;;;;;;20479;6853;307311;31
2022/06/23 02:13:48;;;;;;;10.23;8.63;;;22.80;60.40;;;;;;20697;6853;117619;31
2022/06/23 02:16:47;;;;;;;11.40;8.43;;;22.60;60.70;;;;;;20675;6853;117717;31
2022/06/23 02:19:32;;;;;;;10.57;7.93;;;22.20;61.50;;;;;;20723;6853;118101;31
2022/06/23 02:21:57;;;;;;;10.03;7.40;;;21.80;62.30;;;;;;20677;6852;118034;31
2022/06/23 02:24:29;;;;;;;8.80;7.90;;;21.60;62.70;;;;;;20482;6853;336245;31
2022/06/23 02:26:55;;;;;;;7.00;6.40;;;21.80;61.50;;;;;;20083;6853;119251;31
2022/06/23 02:29:33;;;;;;;9.60;6.45;;;21.70;61.30;;;;;;20628;6872;122176;31
2022/06/23 02:32:15;;;;;;;7.53;6.15;;;21.50;61.90;;;;;;20411;6872;337721;31
2022/06/23 02:34:41;;;;;;;7.47;5.57;;;21.60;62.20;;;;;;20640;6872;117012;31
2022/06/23 02:37:26;;;;;;;6.77;5.63;;;21.60;62.40;;;;;;20569;6855;117394;31
2022/06/23 02:39:52;;;;;;;7.80;7.00;;;21.40;62.80;;;;;;20472;6857;294062;31
2022/06/23 02:42:21;;;;;;;8.50;6.00;;;21.60;63.00;;;;;;20635;6872;120550;31
2022/06/23 02:44:56;;;;;;;11.63;6.20;;;21.60;62.60;;;;;;20603;6872;117497;31
2022/06/23 02:47:28;;;;;;;165.70;8.27;;;21.40;62.80;;;;;;20021;6872;119172;31
2022/06/23 02:49:55;;;;;;;138.25;8.65;;;21.20;63.30;;;;;;20436;6872;341692;31
2022/06/23 02:52:26;;;;;;;81.20;7.30;;;21.40;63.80;;;;;;20631;6857;118339;31
2022/06/23 02:55:11;;;;;;;64.80;6.30;;;21.40;63.50;;;;;;20706;6851;117074;31
2022/06/23 02:57:43;;;;;;;114.80;6.13;;;21.30;63.90;;;;;;20661;6852;118569;31
2022/06/23 03:00:08;;;;;;;4.40;4.10;;;21.10;64.10;;;;;;20688;6852;117313;31
2022/06/23 03:02:40;;;;;;;225.40;8.60;;;20.90;64.30;;;;;;20658;6852;117994;31
2022/06/23 03:05:35;;;;;;;34.10;6.07;;;20.80;64.50;;;;;;20677;6852;122091;31
2022/06/23 03:08:10;;;;;;;28.70;5.23;;;20.80;64.80;;;;;;20708;6852;118245;31
2022/06/23 03:10:49;;;;;;;38.43;5.30;;;20.80;65.20;;;;;;20683;6852;117459;31
2022/06/23 03:13:20;;;;;;;74.27;5.47;;;20.70;65.30;;;;;;20675;6852;122162;31
2022/06/23 03:15:56;;;;;;;26.73;4.63;;;20.70;65.60;;;;;;20663;6853;117582;31
2022/06/23 03:18:21;;;;;;;11.13;4.47;;;20.70;65.70;;;;;;20471;6853;308258;31
2022/06/23 03:20:56;;;;;;;20.70;5.07;;;21.10;65.60;;;;;;20477;6853;343068;31
2022/06/23 03:23:42;;;;;;;4.37;3.97;;;21.50;64.00;;;;;;20677;6853;117949;31
2022/06/23 03:26:27;;;;;;;5.30;4.30;;;21.50;63.70;;;;;;20456;6871;278443;31
2022/06/23 03:29:20;;;;;;;4.85;4.00;;;21.70;62.50;;;;;;20474;6851;307598;31
2022/06/23 03:32:14;;;;;;;4.97;3.47;;;22.00;61.50;;;;;;20646;6851;117095;31
2022/06/23 03:35:06;;;;;;;4.10;3.63;;;21.90;61.80;;;;;;20719;6851;118082;31
2022/06/23 03:37:51;;;;;;;7.23;4.07;;;21.60;62.50;;;;;;20740;6841;117068;31
2022/06/23 03:43:31;;;;;;;6.97;5.10;;;21.60;62.80;;;;;;20509;6845;291128;31
2022/06/23 03:46:00;;;;;;;8.07;4.53;;;22.00;61.30;;;;;;20725;6845;119097;31
2022/06/23 03:48:39;;;;;;;5.63;4.60;;;21.90;61.30;;;;;;20522;6860;117146;31
2022/06/23 03:51:24;;;;;;;5.67;4.50;;;21.70;62.10;;;;;;20537;6845;279876;31
2022/06/23 03:53:53;;;;;;;6.23;4.37;;;21.80;62.10;;;;;;20708;6845;117126;31
2022/06/23 03:56:18;;;;;;;5.18;4.50;;;21.80;62.10;;;;;;20501;6845;309392;31
2022/06/23 03:58:47;;;;;;;6.47;4.40;;;21.90;61.10;;;;;;20682;6860;117491;31
2022/06/23 04:01:14;;;;;;;4.60;4.00;;;21.80;61.20;;;;;;20736;6845;116974;31
2022/06/23 04:04:02;;;;;;;4.70;3.85;;;21.60;61.70;;;;;;20738;6845;117430;31
2022/06/23 04:06:31;;;;;;;4.32;3.92;;;21.40;62.10;;;;;;20531;6843;310936;31
2022/06/23 04:08:56;;;;;;;4.80;3.90;;;21.70;61.30;;;;;;20746;6844;116751;31
2022/06/23 04:14:07;;;;;;;4.70;4.23;;;21.50;61.60;;;;;;20540;6845;312011;31
2022/06/23 04:16:33;;;;;;;4.37;3.87;;;21.70;60.80;;;;;;20753;6845;117022;31
2022/06/23 04:18:59;;;;;;;4.78;4.03;;;21.70;60.70;;;;;;20543;6845;278874;31
2022/06/23 04:21:25;;;;;;;5.43;4.10;;;21.80;60.30;;;;;;20490;6845;306969;31
2022/06/23 04:23:54;;;;;;;4.60;3.20;;;22.10;59.90;;;;;;20741;6845;116845;31
2022/06/23 04:26:22;;;;;;;4.10;3.20;;;22.00;60.10;;;;;;20619;6860;116002;31
2022/06/23 04:28:48;;;;;;;4.40;4.00;;;21.70;60.60;;;;;;20509;6845;277433;31
2022/06/23 04:31:17;;;;;;;4.72;4.12;;;21.90;60.00;;;;;;20452;6845;307411;31
2022/06/23 04:33:43;;;;;;;3.87;3.57;;;22.10;59.20;;;;;;20698;6845;120275;31
2022/06/23 04:36:08;;;;;;;5.53;4.20;;;21.90;59.50;;;;;;20724;6860;120067;31
2022/06/23 04:38:37;;;;;;;6.03;3.90;;;21.70;60.20;;;;;;20513;6845;311010;31
2022/06/23 04:41:09;;;;;;;4.80;3.87;;;21.80;60.50;;;;;;20728;6845;121480;31
2022/06/23 04:43:44;;;;;;;5.40;4.00;;;21.70;60.50;;;;;;20504;6845;307003;31
2022/06/23 04:46:10;;;;;;;3.97;3.67;;;21.80;59.80;;;;;;20735;6845;117113;31
2022/06/23 04:48:38;;;;;;;4.70;4.00;;;21.70;60.00;;;;;;20709;6845;116340;31
2022/06/23 04:51:04;;;;;;;3.80;3.40;;;21.50;60.60;;;;;;20735;6845;119801;31
2022/06/23 04:53:37;;;;;;;5.83;3.80;;;21.30;61.20;;;;;;20715;6845;117197;31
2022/06/23 04:56:01;;;;;;;5.30;3.50;;;21.20;61.80;;;;;;20732;6845;117139;31
2022/06/23 04:58:28;;;;;;;4.93;4.23;;;21.20;62.20;;;;;;20481;6860;279813;31
2022/06/23 05:00:53;;;;;;;5.07;4.40;;;21.50;61.90;;;;;;20535;6845;278048;31
2022/06/23 05:03:19;;;;;;;5.97;4.80;;;21.90;61.00;;;;;;20524;6845;278617;31
2022/06/23 05:05:45;;;;;;;4.63;4.17;;;22.30;60.00;;;;;;20738;6845;117018;31
2022/06/23 05:08:14;;;;;;;7.70;4.75;;;22.20;59.80;;;;;;20498;6845;307337;31
2022/06/23 05:10:59;;;;;;;5.37;4.60;;;22.40;59.30;;;;;;20733;6845;117114;31
2022/06/23 05:13:25;;;;;;;6.00;4.97;;;22.30;59.60;;;;;;20508;6845;311125;31
2022/06/23 05:15:50;;;;;;;5.20;4.70;;;22.40;59.30;;;;;;20729;6845;119195;31
2022/06/23 05:18:23;;;;;;;5.25;4.60;;;22.40;59.60;;;;;;20750;6843;116854;31
2022/06/23 05:20:48;;;;;;;5.97;5.10;;;22.20;60.20;;;;;;20516;6844;336076;31
2022/06/23 05:23:14;;;;;;;5.37;4.80;;;22.40;60.50;;;;;;20701;6845;117450;31
2022/06/23 05:25:43;;;;;;;5.85;4.37;;;22.30;60.30;;;;;;20739;6845;116963;31
2022/06/23 05:28:12;;;;;;;6.87;4.37;;;22.20;60.80;;;;;;20741;6845;116895;31
2022/06/23 05:30:40;;;;;;;4.13;3.70;;;22.10;61.30;;;;;;20715;6845;116987;31
2022/06/23 05:33:06;;;;;;;5.03;4.43;;;21.90;61.50;;;;;;20522;6845;293814;31
2022/06/23 05:35:38;;;;;;;7.93;5.13;;;22.20;61.20;;;;;;20485;6845;308322;31
2022/06/23 05:38:07;;;;;;;4.93;4.40;;;22.60;59.70;;;;;;20737;6845;117338;31
2022/06/23 05:40:35;;;;;;;5.17;3.90;;;22.60;59.60;;;;;;20660;6860;117553;31
2022/06/23 05:43:02;;;;;;;5.10;4.67;;;22.40;60.10;;;;;;20525;6845;306808;31
2022/06/23 05:45:27;;;;;;;5.47;4.60;;;22.70;60.40;;;;;;20502;6845;309809;31
2022/06/23 05:47:52;;;;;;;8.02;4.28;;;23.00;59.50;;;;;;20707;6845;117177;31
2022/06/23 05:50:19;;;;;;;4.53;3.80;;;23.00;59.20;;;;;;20735;6845;117745;31
2022/06/23 05:52:58;;;;;;;5.73;4.57;;;22.80;59.60;;;;;;20504;6845;307899;31
2022/06/23 05:55:24;;;;;;;4.90;4.50;;;23.00;58.60;;;;;;20510;6845;314596;31
2022/06/23 05:57:53;;;;;;;4.82;4.43;;;23.40;57.70;;;;;;20440;6845;337927;31
2022/06/23 06:00:32;;;;;;;4.43;4.13;;;23.80;57.40;;;;;;20732;6845;116776;31
2022/06/23 06:03:01;;;;;;;4.40;4.10;;;23.70;57.50;;;;;;20746;6845;116993;31
2022/06/23 06:05:34;;;;;;;5.13;4.37;;;23.50;58.00;;;;;;20502;6845;278028;31
2022/06/23 06:07:58;;;;;;;4.85;4.45;;;23.70;57.20;;;;;;20528;6845;287482;31
2022/06/23 06:10:24;;;;;;;6.23;4.63;;;24.10;57.00;;;;;;20528;6845;278510;31
2022/06/23 06:12:49;;;;;;;4.28;3.95;;;24.80;56.00;;;;;;20741;6845;118187;31
2022/06/23 06:15:18;;;;;;;4.57;4.13;;;25.20;56.50;;;;;;20677;6845;117567;31
2022/06/23 06:17:44;;;;;;;6.53;4.40;;;25.40;56.60;;;;;;20516;6845;294486;31
2022/06/23 06:20:09;;;;;;;4.60;4.20;;;26.20;53.70;;;;;;20509;6845;325214;31
2022/06/23 06:22:58;;;;;;;4.27;3.87;;;27.00;51.70;;;;;;20695;6860;118018;31
2022/06/23 06:25:30;;;;;;;4.27;3.97;;;27.40;52.30;;;;;;20720;6845;117564;31
2022/06/23 06:27:55;;;;;;;6.55;4.55;;;27.70;52.70;;;;;;20531;6845;309652;31
2022/06/23 06:30:25;;;;;;;5.33;4.17;;;28.30;49.30;;;;;;20729;6843;117325;31
2022/06/23 06:32:50;;;;;;;4.90;3.77;;;28.70;49.80;;;;;;20733;6845;116957;31
2022/06/23 06:35:30;;;;;;;5.70;4.00;;;28.80;50.10;;;;;;20507;6845;307214;31
2022/06/23 06:37:56;;;;;;;3.90;3.53;;;29.40;46.80;;;;;;20531;6845;320017;31
2022/06/23 06:40:21;;;;;;;4.60;3.60;;;30.20;45.70;;;;;;20737;6845;119099;31
2022/06/23 06:42:54;;;;;;;4.63;3.83;;;30.30;46.40;;;;;;20539;6845;292640;31
2022/06/23 06:45:19;;;;;;;4.90;4.00;;;30.60;44.60;;;;;;20714;6845;117917;31
2022/06/23 06:47:46;;;;;;;4.03;3.63;;;30.80;45.60;;;;;;20730;6845;117942;31
2022/06/23 06:50:20;;;;;;;6.75;4.00;;;30.70;45.80;;;;;;20531;6845;306100;31
2022/06/23 06:52:46;;;;;;;5.47;3.80;;;31.10;43.40;;;;;;20391;6845;311015;31
2022/06/23 06:55:11;;;;;;;7.95;3.40;;;31.80;42.10;;;;;;20737;6845;117817;31
2022/06/23 06:57:57;;;;;;;4.87;3.27;;;31.90;43.00;;;;;;20687;6845;118922;31
2022/06/23 07:00:25;;;;;;;4.87;3.23;;;31.80;43.30;;;;;;20708;6845;117043;31
2022/06/23 07:02:54;;;;;;;5.37;3.80;;;31.60;43.70;;;;;;20511;6845;306770;31
2022/06/23 07:05:20;;;;;;;5.03;3.87;;;32.00;41.00;;;;;;20479;6845;306314;31
2022/06/23 07:07:45;;;;;;;3.62;3.30;;;32.60;39.90;;;;;;20461;6860;308172;31
2022/06/23 07:10:24;;;;;;;6.47;3.60;;;32.90;39.40;;;;;;20720;6845;117186;31
2022/06/23 07:12:50;;;;;;;5.40;3.43;;;32.90;40.00;;;;;;20501;6845;293854;31
2022/06/23 07:15:38;;;;;;;6.93;3.17;;;33.00;39.40;;;;;;20695;6845;122113;31
2022/06/23 07:18:06;;;;;;;3.27;2.97;;;32.90;40.00;;;;;;20706;6845;117381;31
2022/06/23 07:20:32;;;;;;;3.57;3.10;;;32.60;40.60;;;;;;20469;6845;277467;31
2022/06/23 07:22:57;;;;;;;3.42;3.12;;;32.70;38.40;;;;;;19736;6845;307149;31
2022/06/23 07:25:23;;;;;;;3.30;3.00;;;32.80;38.10;;;;;;20645;6860;117574;31
2022/06/23 07:27:51;;;;;;;5.05;3.12;;;32.50;39.40;;;;;;20505;6845;276931;31
2022/06/23 07:30:20;;;;;;;5.87;3.30;;;32.40;39.30;;;;;;20716;6845;121521;31
2022/06/23 07:32:57;;;;;;;3.23;2.93;;;32.20;39.70;;;;;;20724;6845;116680;31
2022/06/23 07:35:34;;;;;;;3.70;3.13;;;31.80;40.30;;;;;;20480;6845;314426;31
2022/06/23 07:38:00;;;;;;;6.07;3.20;;;31.80;40.10;;;;;;20736;6845;117224;31
2022/06/23 07:40:26;;;;;;;7.50;3.43;;;31.70;40.40;;;;;;20604;6860;118365;31
2022/06/23 07:42:58;;;;;;;5.97;3.33;;;31.40;40.60;;;;;;20512;6844;308036;31
2022/06/23 07:45:30;;;;;;;7.73;3.40;;;31.30;40.70;;;;;;20704;6845;117730;31
2022/06/23 07:47:55;;;;;;;6.10;3.57;;;31.20;40.30;;;;;;20743;6845;120154;31
2022/06/23 07:50:21;;;;;;;5.68;3.70;;;30.90;40.90;;;;;;20534;6845;278182;31
2022/06/23 07:52:46;;;;;;;6.30;3.30;;;30.90;40.60;;;;;;20526;6845;335404;31
2022/06/23 07:55:15;;;;;;;4.70;3.17;;;31.10;40.30;;;;;;20519;6845;307802;31
2022/06/23 07:57:41;;;;;;;5.50;3.20;;;31.20;39.90;;;;;;20506;6845;321908;31
2022/06/23 08:00:07;;;;;;;3.87;2.97;;;31.20;40.70;;;;;;20755;6845;121015;31
2022/06/23 08:02:45;;;;;;;4.60;2.97;;;31.00;40.80;;;;;;20731;6845;120090;31
2022/06/23 08:05:11;;;;;;;5.68;3.17;;;30.70;41.00;;;;;;20499;6845;335410;31
2022/06/23 08:07:38;;;;;;;6.40;3.10;;;30.80;40.10;;;;;;20718;6845;120392;31
2022/06/23 08:10:03;;;;;;;6.00;3.30;;;30.80;40.60;;;;;;20524;6860;279320;31
2022/06/23 08:18:10;;;;;;;3.60;2.80;;;31.50;39.80;;;;;;20787;6845;116668;31
2022/06/23 08:20:35;;;;;;;3.83;2.90;;;31.50;40.10;;;;;;20764;6845;119588;31
2022/06/23 08:23:01;;;;;;;6.70;3.20;;;31.40;40.70;;;;;;20548;6845;306177;31
2022/06/23 08:25:28;;;;;;;5.10;3.27;;;31.50;40.00;;;;;;20749;6845;117619;31
2022/06/23 08:27:53;;;;;;;3.13;2.80;;;31.50;40.50;;;;;;20730;6845;117258;31
2022/06/23 08:30:18;;;;;;;6.00;2.43;;;31.40;40.70;;;;;;20731;6845;116872;31
2022/06/23 08:32:44;;;;;;;6.67;2.60;;;31.30;40.00;;;;;;20668;6860;117703;31
2022/06/23 08:35:37;;;;;;;4.28;2.50;;;31.20;39.80;;;;;;20507;6845;308527;31
2022/06/23 08:38:01;;;;;;;5.53;2.57;;;31.50;38.60;;;;;;20729;6845;116789;31
2022/06/23 08:40:51;;;;;;;4.65;2.90;;;31.70;38.70;;;;;;20367;6860;307419;31
2022/06/23 08:43:19;;;;;;;3.30;2.50;;;31.80;37.30;;;;;;20681;6845;120902;31
2022/06/23 08:45:45;;;;;;;5.23;2.60;;;31.90;37.60;;;;;;20520;6845;308029;31
2022/06/23 08:48:17;;;;;;;7.17;2.70;;;32.00;35.80;;;;;;20692;6845;117194;31
2022/06/23 08:50:45;;;;;;;5.30;2.53;;;32.10;37.00;;;;;;20471;6845;308899;31
2022/06/23 08:53:27;;;;;;;3.93;2.50;;;32.30;37.10;;;;;;20672;6858;117044;31
2022/06/23 08:55:59;;;;;;;4.53;2.70;;;32.30;36.50;;;;;;20497;6844;277719;31
2022/06/23 08:58:37;;;;;;;5.30;2.87;;;32.40;36.20;;;;;;20730;6845;116981;31
2022/06/23 09:01:19;;;;;;;4.87;2.60;;;32.40;36.70;;;;;;20485;6845;282716;31
2022/06/23 09:03:58;;;;;;;6.10;3.00;;;32.50;36.60;;;;;;20504;6845;308384;31
2022/06/23 09:06:40;;;;;;;6.72;2.70;;;32.80;35.80;;;;;;20494;6845;309315;31
2022/06/23 09:09:22;;;;;;;5.53;2.77;;;33.10;35.70;;;;;;19872;6860;307504;31
2022/06/23 09:11:50;;;;;;;6.20;2.90;;;33.20;36.20;;;;;;20490;6845;317579;31
2022/06/23 09:14:38;;;;;;;4.93;2.83;;;33.40;36.10;;;;;;20536;6845;303800;31
2022/06/23 09:17:11;;;;;;;3.90;2.90;;;33.40;37.90;;;;;;19845;6845;307490;31
2022/06/23 09:19:40;;;;;;;4.73;2.90;;;33.60;36.60;;;;;;20496;6845;306221;31
2022/06/23 09:22:36;;;;;;;4.47;2.90;;;33.60;35.90;;;;;;20516;6845;307341;31
2022/06/23 09:25:17;;;;;;;5.25;2.80;;;33.60;34.90;;;;;;20525;6845;307414;31
2022/06/23 09:27:42;;;;;;;5.10;3.10;;;33.70;36.10;;;;;;20516;6845;306770;31
2022/06/23 09:30:11;;;;;;;4.35;2.83;;;33.70;36.00;;;;;;20522;6845;308964;31
2022/06/23 09:32:47;;;;;;;6.17;3.07;;;33.70;37.30;;;;;;20744;6845;117022;31
2022/06/23 09:35:18;;;;;;;5.37;3.07;;;33.60;37.10;;;;;;20535;6845;281046;31
2022/06/23 09:38:00;;;;;;;6.23;3.27;;;33.70;36.00;;;;;;20507;6845;297336;31
2022/06/23 09:40:36;;;;;;;4.47;2.97;;;33.70;36.50;;;;;;20529;6845;292172;31
2022/06/23 09:43:07;;;;;;;4.70;3.23;;;33.70;36.60;;;;;;20535;6845;307440;31
2022/06/23 09:45:59;;;;;;;5.73;3.40;;;33.80;36.60;;;;;;20695;6845;121410;31
2022/06/23 09:48:30;;;;;;;6.18;3.05;;;33.70;36.50;;;;;;20535;6845;307617;31
2022/06/23 09:51:03;;;;;;;5.07;2.77;;;33.60;35.80;;;;;;20351;6860;278330;31
2022/06/23 09:53:35;;;;;;;5.20;2.57;;;33.70;37.00;;;;;;20694;6845;127327;31
2022/06/23 09:56:13;;;;;;;3.87;2.80;;;33.80;36.70;;;;;;19643;7206;121964;31
2022/06/23 09:58:48;;;;;;;4.10;3.20;;;33.60;36.30;;;;;;20126;6860;307202;31
2022/06/23 10:01:54;;;;;;;7.63;3.13;;;33.60;35.80;;;;;;20723;6845;126764;31
2022/06/23 10:04:53;;;;;;;6.30;2.73;;;33.40;36.30;;;;;;20714;6843;116796;31
2022/06/23 10:07:51;;;;;;;5.53;3.17;;;33.00;37.10;;;;;;20504;6844;278292;31
2022/06/23 10:10:33;;;;;;;6.00;2.93;;;33.30;36.70;;;;;;20521;6845;307227;31
2022/06/23 10:13:19;;;;;;;5.90;3.30;;;33.70;36.40;;;;;;20502;6845;306855;31
2022/06/23 10:15:51;;;;;;;5.60;3.23;;;33.90;36.10;;;;;;20735;6845;117675;31
2022/06/23 10:18:16;;;;;;;3.73;2.80;;;33.80;36.60;;;;;;20704;6845;116924;31
2022/06/23 10:21:05;;;;;;;6.10;3.17;;;33.60;36.80;;;;;;20533;6845;278857;31
2022/06/23 10:23:57;;;;;;;4.83;3.20;;;33.70;36.20;;;;;;20496;6845;277256;31
2022/06/23 10:26:42;;;;;;;6.13;3.30;;;33.90;36.30;;;;;;20516;6845;278353;31
2022/06/23 10:29:29;;;;;;;4.47;2.90;;;34.10;34.90;;;;;;20723;6845;116802;31
2022/06/23 10:32:05;;;;;;;5.03;3.07;;;33.90;35.40;;;;;;20516;6845;310522;31
2022/06/23 10:34:53;;;;;;;5.37;3.20;;;34.00;35.70;;;;;;20481;6845;310362;31
2022/06/23 10:37:41;;;;;;;5.10;3.17;;;34.10;35.80;;;;;;20050;6860;123884;31
2022/06/23 10:40:07;;;;;;;5.57;3.00;;;33.90;36.00;;;;;;20731;6845;120937;31
2022/06/23 10:42:42;;;;;;;5.65;3.28;;;33.60;36.10;;;;;;20486;6845;309271;31
2022/06/23 10:45:07;;;;;;;5.18;2.90;;;33.70;35.80;;;;;;20499;6845;336792;31
2022/06/23 10:48:13;;;;;;;4.70;3.07;;;33.80;35.40;;;;;;20696;6845;117139;31
2022/06/23 10:50:52;;;;;;;4.93;3.00;;;33.70;35.40;;;;;;20508;6845;281246;31
2022/06/23 10:53:20;;;;;;;5.33;2.83;;;33.70;35.90;;;;;;19876;6860;131987;31
2022/06/23 10:56:07;;;;;;;5.40;3.00;;;33.60;36.30;;;;;;20492;6845;307694;31
2022/06/23 10:58:52;;;;;;;5.55;3.22;;;33.60;36.50;;;;;;20514;6845;338021;31
2022/06/23 11:01:40;;;;;;;6.03;3.33;;;33.70;35.70;;;;;;20714;6845;117490;31
2022/06/23 11:04:06;;;;;;;8.67;3.20;;;33.60;36.10;;;;;;20737;6845;116959;31
2022/06/23 11:06:34;;;;;;;5.70;3.10;;;33.40;36.00;;;;;;20534;6845;277374;31
2022/06/23 11:09:17;;;;;;;6.13;3.27;;;33.40;35.10;;;;;;20708;6845;116967;31
2022/06/23 11:12:22;;;;;;;7.30;3.13;;;33.30;35.90;;;;;;20517;6845;307785;31
2022/06/23 11:14:47;;;;;;;5.60;3.28;;;33.40;35.70;;;;;;20514;6845;276737;31
2022/06/23 11:17:16;;;;;;;5.85;2.80;;;33.50;34.80;;;;;;20539;6843;298767;31
2022/06/23 11:19:45;;;;;;;3.07;2.47;;;33.60;35.40;;;;;;20684;6859;117111;31
2022/06/23 11:22:27;;;;;;;7.07;2.90;;;33.40;35.50;;;;;;20508;6845;277879;31
2022/06/23 11:25:18;;;;;;;4.97;3.30;;;33.50;35.80;;;;;;20738;6845;116892;31
2022/06/23 11:28:07;;;;;;;4.87;3.00;;;33.50;36.00;;;;;;20140;6845;120531;31
2022/06/23 11:30:58;;;;;;;6.17;2.90;;;33.40;36.10;;;;;;20704;6845;117138;31
2022/06/23 11:33:58;;;;;;;5.57;3.05;;;33.20;36.40;;;;;;20509;6845;278048;31
2022/06/23 11:36:55;;;;;;;7.17;3.07;;;33.30;36.90;;;;;;20020;6860;118903;31
2022/06/23 11:39:40;;;;;;;6.30;3.20;;;33.40;35.90;;;;;;20731;6845;117536;31
2022/06/23 11:42:06;;;;;;;5.00;3.30;;;33.20;36.20;;;;;;20479;6845;336903;31
2022/06/23 11:44:54;;;;;;;6.60;3.30;;;33.40;36.50;;;;;;20119;6845;307755;31
2022/06/23 11:47:39;;;;;;;4.53;3.13;;;33.60;35.70;;;;;;20716;6845;117233;31
2022/06/23 11:50:12;;;;;;;4.63;2.90;;;33.60;35.70;;;;;;20719;6845;117115;31
2022/06/23 11:52:57;;;;;;;6.43;3.25;;;33.40;36.00;;;;;;20513;6845;308533;31
2022/06/23 11:55:36;;;;;;;7.37;3.90;;;33.50;35.90;;;;;;20509;6845;323340;31
2022/06/23 11:58:25;;;;;;;7.73;3.07;;;33.70;35.30;;;;;;20727;6845;117914;31
2022/06/23 12:01:15;;;;;;;4.73;3.10;;;33.70;35.60;;;;;;20728;6845;117281;31
2022/06/23 12:03:51;;;;;;;4.30;3.10;;;33.60;36.30;;;;;;20512;6845;307348;31
2022/06/23 12:06:56;;;;;;;5.33;3.10;;;33.70;36.60;;;;;;20527;6845;279841;31
2022/06/23 12:09:26;;;;;;;5.30;3.10;;;33.90;36.40;;;;;;20504;6845;319527;31
2022/06/23 12:11:51;;;;;;;5.33;3.03;;;34.10;35.20;;;;;;20668;6860;117277;31
2022/06/23 12:14:17;;;;;;;4.20;2.90;;;34.00;35.00;;;;;;20531;6845;309325;31
2022/06/23 12:16:48;;;;;;;6.87;3.00;;;33.90;34.60;;;;;;20749;6845;117076;31
2022/06/23 12:19:14;;;;;;;8.07;2.77;;;33.80;34.60;;;;;;20667;6860;117184;31
2022/06/23 12:21:57;;;;;;;4.28;2.80;;;33.60;34.40;;;;;;20478;6860;308257;31
2022/06/23 12:24:28;;;;;;;4.30;2.83;;;33.50;34.80;;;;;;20724;6845;120510;31
2022/06/23 12:26:56;;;;;;;6.70;3.47;;;33.40;34.90;;;;;;20496;6845;278150;31
2022/06/23 12:29:25;;;;;;;5.93;3.33;;;33.50;35.70;;;;;;20691;6844;117278;31
2022/06/23 12:32:07;;;;;;;5.50;3.37;;;33.40;36.20;;;;;;20503;6845;278397;31
2022/06/23 12:34:39;;;;;;;6.20;3.03;;;33.60;36.40;;;;;;19413;7208;321842;31
2022/06/23 12:37:25;;;;;;;6.77;3.20;;;33.80;35.40;;;;;;20243;6853;119101;31
2022/06/23 12:40:00;;;;;;;5.57;3.00;;;33.70;34.70;;;;;;20745;6841;117728;31
2022/06/23 12:42:42;;;;;;;6.87;3.10;;;33.40;34.70;;;;;;20487;6860;278414;31
2022/06/23 12:45:18;;;;;;;5.80;2.97;;;33.40;34.70;;;;;;20536;6845;283793;31
2022/06/23 12:47:49;;;;;;;6.35;3.00;;;33.60;35.70;;;;;;20543;6845;308757;31
2022/06/23 12:50:44;;;;;;;5.93;3.33;;;33.80;34.30;;;;;;20526;6845;281877;31
2022/06/23 12:53:46;;;;;;;5.50;2.87;;;33.90;35.10;;;;;;20722;6845;117936;31
2022/06/23 12:56:38;;;;;;;7.90;2.93;;;33.80;34.70;;;;;;20733;6845;117465;31
2022/06/23 12:59:17;;;;;;;6.03;3.40;;;33.50;35.30;;;;;;20722;6845;118913;31
2022/06/23 13:01:42;;;;;;;5.20;2.80;;;33.20;35.80;;;;;;20504;6845;307388;31
2022/06/23 13:04:08;;;;;;;7.90;3.40;;;33.40;35.60;;;;;;20745;6845;121882;31
2022/06/23 13:06:53;;;;;;;6.23;3.10;;;33.40;35.00;;;;;;20523;6845;280782;31
2022/06/23 13:09:55;;;;;;;6.07;3.17;;;33.50;34.50;;;;;;20481;6845;277306;31
2022/06/23 13:12:27;;;;;;;3.80;2.77;;;33.70;33.90;;;;;;20738;6845;67544;31
2022/06/23 13:14:56;;;;;;;7.17;3.13;;;33.50;34.90;;;;;;20516;6845;309142;31
2022/06/23 13:17:28;;;;;;;6.53;3.33;;;33.50;34.30;;;;;;20709;6845;122842;31
2022/06/23 13:20:26;;;;;;;4.70;2.80;;;33.40;34.50;;;;;;20732;6845;117283;31
2022/06/23 13:23:12;;;;;;;5.13;3.33;;;33.20;35.10;;;;;;20521;6845;307805;31
2022/06/23 13:25:37;;;;;;;5.97;2.70;;;33.40;35.80;;;;;;20497;6845;308278;31
2022/06/23 13:28:03;;;;;;;5.00;2.70;;;33.70;33.50;;;;;;20726;6845;117506;31
2022/06/23 13:30:28;;;;;;;5.30;2.53;;;33.60;33.80;;;;;;20728;6845;117283;31
2022/06/23 13:32:57;;;;;;;7.30;2.70;;;33.30;34.30;;;;;;20711;6845;117865;31